sensor_id;sensor_type;location;lat;lon;timestamp;P1;durP1;ratioP1;P2;durP2;ratioP2
23712;SDS011;12035;49.978;8.298;2023-03-14T00:01:12;1.90;;;0.50;;
23712;SDS011;12035;49.978;8.298;2023-03-14T00:06:12;2.95;;;0.77;;
23712;SDS011;12035;49.978;8.298;2023-03-14T00:11:12;5.43;;;1.33;;
23712;SDS011;12035;49.978;8.298;2023-03-14T00:16:12;2.30;;;0.65;;
23712;SDS011;12035;49.978;8.298;2023-03-14T00:21:09;5.35;;;0.77;;
23712;SDS011;12035;49.978;8.298;2023-03-14T00:26:08;3.88;;;0.70;;
23712;SDS011;12035;49.978;8.298;2023-03-14T00:31:08;3.85;;;0.90;;
23712;SDS011;12035;49.978;8.298;2023-03-14T00:36:09;3.88;;;1.08;;
23712;SDS011;12035;49.978;8.298;2023-03-14T00:41:08;3.60;;;0.80;;
23712;SDS011;12035;49.978;8.298;2023-03-14T00:46:08;2.45;;;0.80;;
23712;SDS011;12035;49.978;8.298;2023-03-14T00:51:06;2.40;;;0.73;;
23712;SDS011;12035;49.978;8.298;2023-03-14T00:56:05;4.85;;;1.10;;
23712;SDS011;12035;49.978;8.298;2023-03-14T01:01:06;2.80;;;1.10;;
23712;SDS011;12035;49.978;8.298;2023-03-14T01:06:06;4.95;;;1.10;;
23712;SDS011;12035;49.978;8.298;2023-03-14T01:11:09;5.75;;;1.45;;
23712;SDS011;12035;49.978;8.298;2023-03-14T01:16:11;3.63;;;0.93;;
23712;SDS011;12035;49.978;8.298;2023-03-14T01:21:10;3.10;;;0.90;;
23712;SDS011;12035;49.978;8.298;2023-03-14T01:26:09;8.07;;;1.10;;
23712;SDS011;12035;49.978;8.298;2023-03-14T01:31:08;5.13;;;1.00;;
23712;SDS011;12035;49.978;8.298;2023-03-14T01:36:08;6.72;;;0.80;;
23712;SDS011;12035;49.978;8.298;2023-03-14T01:41:07;3.72;;;0.80;;
23712;SDS011;12035;49.978;8.298;2023-03-14T01:51:33;4.90;;;1.27;;
23712;SDS011;12035;49.978;8.298;2023-03-14T01:56:36;4.15;;;1.05;;
23712;SDS011;12035;49.978;8.298;2023-03-14T02:01:38;6.88;;;1.05;;
23712;SDS011;12035;49.978;8.298;2023-03-14T02:06:41;7.18;;;1.15;;
23712;SDS011;12035;49.978;8.298;2023-03-14T02:11:45;4.18;;;1.15;;
23712;SDS011;12035;49.978;8.298;2023-03-14T02:16:44;5.30;;;1.27;;
23712;SDS011;12035;49.978;8.298;2023-03-14T02:21:45;2.95;;;0.80;;
23712;SDS011;12035;49.978;8.298;2023-03-14T02:27:02;4.18;;;0.82;;
23712;SDS011;12035;49.978;8.298;2023-03-14T02:32:07;1.70;;;0.65;;
23712;SDS011;12035;49.978;8.298;2023-03-14T02:37:05;4.25;;;0.85;;
23712;SDS011;12035;49.978;8.298;2023-03-14T02:42:03;4.18;;;1.08;;
23712;SDS011;12035;49.978;8.298;2023-03-14T02:47:00;5.97;;;1.30;;
23712;SDS011;12035;49.978;8.298;2023-03-14T02:51:59;2.70;;;0.95;;
23712;SDS011;12035;49.978;8.298;2023-03-14T02:56:56;3.80;;;0.80;;
23712;SDS011;12035;49.978;8.298;2023-03-14T03:01:54;4.82;;;0.95;;
23712;SDS011;12035;49.978;8.298;2023-03-14T03:06:51;4.20;;;1.05;;
23712;SDS011;12035;49.978;8.298;2023-03-14T03:11:48;2.45;;;0.73;;
23712;SDS011;12035;49.978;8.298;2023-03-14T03:16:45;4.75;;;0.93;;
23712;SDS011;12035;49.978;8.298;2023-03-14T03:21:44;2.28;;;0.80;;
23712;SDS011;12035;49.978;8.298;2023-03-14T03:26:41;4.72;;;0.93;;
23712;SDS011;12035;49.978;8.298;2023-03-14T03:31:38;3.13;;;0.70;;
23712;SDS011;12035;49.978;8.298;2023-03-14T03:36:35;3.50;;;0.80;;
23712;SDS011;12035;49.978;8.298;2023-03-14T03:41:34;7.55;;;1.35;;
23712;SDS011;12035;49.978;8.298;2023-03-14T03:46:31;6.30;;;0.90;;
23712;SDS011;12035;49.978;8.298;2023-03-14T03:51:28;6.05;;;1.00;;
23712;SDS011;12035;49.978;8.298;2023-03-14T03:56:25;4.35;;;0.68;;
23712;SDS011;12035;49.978;8.298;2023-03-14T04:01:23;3.78;;;0.90;;
23712;SDS011;12035;49.978;8.298;2023-03-14T04:06:20;3.28;;;0.73;;
23712;SDS011;12035;49.978;8.298;2023-03-14T04:11:19;2.40;;;0.68;;
23712;SDS011;12035;49.978;8.298;2023-03-14T04:16:16;4.32;;;1.25;;
23712;SDS011;12035;49.978;8.298;2023-03-14T04:21:17;3.03;;;1.25;;
23712;SDS011;12035;49.978;8.298;2023-03-14T04:26:15;4.90;;;0.88;;
23712;SDS011;12035;49.978;8.298;2023-03-14T04:31:14;5.22;;;1.02;;
23712;SDS011;12035;49.978;8.298;2023-03-14T04:36:13;4.72;;;0.82;;
23712;SDS011;12035;49.978;8.298;2023-03-14T04:41:12;3.75;;;0.80;;
23712;SDS011;12035;49.978;8.298;2023-03-14T04:46:09;2.03;;;0.60;;
23712;SDS011;12035;49.978;8.298;2023-03-14T04:51:06;4.00;;;0.70;;
23712;SDS011;12035;49.978;8.298;2023-03-14T04:56:04;4.78;;;0.80;;
23712;SDS011;12035;49.978;8.298;2023-03-14T05:01:03;3.50;;;0.77;;
23712;SDS011;12035;49.978;8.298;2023-03-14T05:06:02;3.00;;;0.93;;
23712;SDS011;12035;49.978;8.298;2023-03-14T05:11:00;2.42;;;0.65;;
23712;SDS011;12035;49.978;8.298;2023-03-14T05:16:04;1.83;;;0.60;;
23712;SDS011;12035;49.978;8.298;2023-03-14T05:21:03;3.40;;;0.68;;
23712;SDS011;12035;49.978;8.298;2023-03-14T05:26:01;2.28;;;0.65;;
23712;SDS011;12035;49.978;8.298;2023-03-14T05:30:58;3.47;;;0.77;;
23712;SDS011;12035;49.978;8.298;2023-03-14T05:35:56;1.95;;;0.50;;
23712;SDS011;12035;49.978;8.298;2023-03-14T05:40:53;5.97;;;1.08;;
23712;SDS011;12035;49.978;8.298;2023-03-14T05:45:50;5.13;;;0.60;;
23712;SDS011;12035;49.978;8.298;2023-03-14T05:50:48;3.03;;;0.52;;
23712;SDS011;12035;49.978;8.298;2023-03-14T05:55:52;2.85;;;0.60;;
23712;SDS011;12035;49.978;8.298;2023-03-14T06:00:50;1.90;;;0.60;;
23712;SDS011;12035;49.978;8.298;2023-03-14T06:05:49;2.97;;;0.65;;
23712;SDS011;12035;49.978;8.298;2023-03-14T06:10:46;2.13;;;0.50;;
23712;SDS011;12035;49.978;8.298;2023-03-14T06:15:45;2.63;;;0.90;;
23712;SDS011;12035;49.978;8.298;2023-03-14T06:20:42;2.83;;;0.80;;
23712;SDS011;12035;49.978;8.298;2023-03-14T06:25:39;3.00;;;0.88;;
23712;SDS011;12035;49.978;8.298;2023-03-14T06:30:36;1.63;;;0.60;;
23712;SDS011;12035;49.978;8.298;2023-03-14T06:35:34;2.75;;;1.00;;
23712;SDS011;12035;49.978;8.298;2023-03-14T06:40:31;2.42;;;0.68;;
23712;SDS011;12035;49.978;8.298;2023-03-14T06:45:28;2.75;;;0.73;;
23712;SDS011;12035;49.978;8.298;2023-03-14T06:50:26;3.00;;;0.65;;
23712;SDS011;12035;49.978;8.298;2023-03-14T06:55:24;2.20;;;0.60;;
23712;SDS011;12035;49.978;8.298;2023-03-14T07:00:22;1.45;;;0.57;;
23712;SDS011;12035;49.978;8.298;2023-03-14T07:05:20;2.03;;;0.40;;
23712;SDS011;12035;49.978;8.298;2023-03-14T07:10:17;2.28;;;0.40;;
23712;SDS011;12035;49.978;8.298;2023-03-14T07:15:15;4.45;;;0.57;;
23712;SDS011;12035;49.978;8.298;2023-03-14T07:20:13;1.83;;;0.50;;
23712;SDS011;12035;49.978;8.298;2023-03-14T07:25:10;2.50;;;0.80;;
23712;SDS011;12035;49.978;8.298;2023-03-14T07:30:08;1.38;;;0.50;;
23712;SDS011;12035;49.978;8.298;2023-03-14T07:35:09;2.17;;;0.68;;
23712;SDS011;12035;49.978;8.298;2023-03-14T07:40:07;1.05;;;0.38;;
23712;SDS011;12035;49.978;8.298;2023-03-14T07:45:09;3.60;;;0.80;;
23712;SDS011;12035;49.978;8.298;2023-03-14T07:50:10;2.45;;;0.80;;
23712;SDS011;12035;49.978;8.298;2023-03-14T07:55:07;3.60;;;0.80;;
23712;SDS011;12035;49.978;8.298;2023-03-14T08:00:06;2.88;;;0.60;;
23712;SDS011;12035;49.978;8.298;2023-03-14T08:05:05;3.60;;;0.65;;
23712;SDS011;12035;49.978;8.298;2023-03-14T08:10:05;2.67;;;0.80;;
23712;SDS011;12035;49.978;8.298;2023-03-14T08:15:05;2.97;;;0.77;;
23712;SDS011;12035;49.978;8.298;2023-03-14T08:20:03;4.05;;;0.80;;
23712;SDS011;12035;49.978;8.298;2023-03-14T08:25:05;2.03;;;0.70;;
23712;SDS011;12035;49.978;8.298;2023-03-14T08:30:03;4.13;;;0.90;;
23712;SDS011;12035;49.978;8.298;2023-03-14T08:35:02;2.38;;;0.77;;
23712;SDS011;12035;49.978;8.298;2023-03-14T08:40:00;3.78;;;0.80;;
23712;SDS011;12035;49.978;8.298;2023-03-14T08:45:01;1.10;;;0.60;;
23712;SDS011;12035;49.978;8.298;2023-03-14T08:49:59;1.90;;;0.55;;
23712;SDS011;12035;49.978;8.298;2023-03-14T08:54:56;1.75;;;0.60;;
23712;SDS011;12035;49.978;8.298;2023-03-14T08:59:53;1.13;;;0.60;;
23712;SDS011;12035;49.978;8.298;2023-03-14T09:04:53;1.52;;;0.52;;
23712;SDS011;12035;49.978;8.298;2023-03-14T09:09:50;1.55;;;0.60;;
23712;SDS011;12035;49.978;8.298;2023-03-14T09:14:47;1.73;;;0.57;;
23712;SDS011;12035;49.978;8.298;2023-03-14T09:19:44;2.33;;;0.70;;
23712;SDS011;12035;49.978;8.298;2023-03-14T09:24:43;1.63;;;0.50;;
23712;SDS011;12035;49.978;8.298;2023-03-14T09:29:40;2.58;;;0.90;;
23712;SDS011;12035;49.978;8.298;2023-03-14T09:34:37;2.38;;;0.70;;
23712;SDS011;12035;49.978;8.298;2023-03-14T09:39:35;1.65;;;0.60;;
23712;SDS011;12035;49.978;8.298;2023-03-14T09:44:34;1.00;;;0.50;;
23712;SDS011;12035;49.978;8.298;2023-03-14T09:49:36;1.80;;;0.47;;
23712;SDS011;12035;49.978;8.298;2023-03-14T09:54:37;1.73;;;0.60;;
23712;SDS011;12035;49.978;8.298;2023-03-14T09:59:41;1.55;;;0.32;;
23712;SDS011;12035;49.978;8.298;2023-03-14T10:04:41;1.30;;;0.50;;
23712;SDS011;12035;49.978;8.298;2023-03-14T10:09:42;1.92;;;0.60;;
23712;SDS011;12035;49.978;8.298;2023-03-14T10:14:46;1.15;;;0.50;;
23712;SDS011;12035;49.978;8.298;2023-03-14T10:19:53;1.17;;;0.60;;
23712;SDS011;12035;49.978;8.298;2023-03-14T10:24:53;0.90;;;0.40;;
23712;SDS011;12035;49.978;8.298;2023-03-14T10:29:56;1.00;;;0.40;;
23712;SDS011;12035;49.978;8.298;2023-03-14T10:35:17;2.17;;;0.65;;
23712;SDS011;12035;49.978;8.298;2023-03-14T10:40:18;0.95;;;0.60;;
23712;SDS011;12035;49.978;8.298;2023-03-14T10:45:28;0.75;;;0.40;;
23712;SDS011;12035;49.978;8.298;2023-03-14T10:50:29;1.85;;;0.40;;
23712;SDS011;12035;49.978;8.298;2023-03-14T10:55:27;2.00;;;0.60;;
23712;SDS011;12035;49.978;8.298;2023-03-14T11:00:37;1.65;;;0.50;;
23712;SDS011;12035;49.978;8.298;2023-03-14T11:05:37;1.27;;;0.50;;
23712;SDS011;12035;49.978;8.298;2023-03-14T11:10:39;1.50;;;0.70;;
23712;SDS011;12035;49.978;8.298;2023-03-14T11:15:45;0.90;;;0.40;;
23712;SDS011;12035;49.978;8.298;2023-03-14T11:20:52;0.70;;;0.40;;
23712;SDS011;12035;49.978;8.298;2023-03-14T11:25:56;1.02;;;0.40;;
23712;SDS011;12035;49.978;8.298;2023-03-14T11:31:00;0.20;;;0.20;;
23712;SDS011;12035;49.978;8.298;2023-03-14T11:36:06;1.40;;;0.40;;
23712;SDS011;12035;49.978;8.298;2023-03-14T11:41:09;0.43;;;0.30;;
23712;SDS011;12035;49.978;8.298;2023-03-14T11:46:13;0.70;;;0.30;;
23712;SDS011;12035;49.978;8.298;2023-03-14T11:51:17;0.40;;;0.20;;
23712;SDS011;12035;49.978;8.298;2023-03-14T11:56:23;3.00;;;0.17;;
23712;SDS011;12035;49.978;8.298;2023-03-14T12:01:29;0.38;;;0.13;;
23712;SDS011;12035;49.978;8.298;2023-03-14T12:06:40;0.10;;;0.08;;
23712;SDS011;12035;49.978;8.298;2023-03-14T12:11:46;0.10;;;0.10;;
23712;SDS011;12035;49.978;8.298;2023-03-14T12:16:49;1.33;;;0.73;;
23712;SDS011;12035;49.978;8.298;2023-03-14T12:21:53;0.45;;;0.20;;
23712;SDS011;12035;49.978;8.298;2023-03-14T12:26:54;0.10;;;0.10;;
23712;SDS011;12035;49.978;8.298;2023-03-14T12:32:07;0.15;;;0.13;;
23712;SDS011;12035;49.978;8.298;2023-03-14T12:37:22;0.55;;;0.10;;
23712;SDS011;12035;49.978;8.298;2023-03-14T12:42:36;7.28;;;0.43;;
23712;SDS011;12035;49.978;8.298;2023-03-14T12:47:42;0.28;;;0.10;;
23712;SDS011;12035;49.978;8.298;2023-03-14T12:53:10;0.20;;;0.10;;
23712;SDS011;12035;49.978;8.298;2023-03-14T12:58:39;0.20;;;0.10;;
23712;SDS011;12035;49.978;8.298;2023-03-14T13:03:47;0.20;;;0.17;;
23712;SDS011;12035;49.978;8.298;2023-03-14T13:08:48;0.00;;;0.00;;
23712;SDS011;12035;49.978;8.298;2023-03-14T13:13:52;0.10;;;0.10;;
23712;SDS011;12035;49.978;8.298;2023-03-14T13:19:00;0.40;;;0.15;;
23712;SDS011;12035;49.978;8.298;2023-03-14T13:24:03;0.10;;;0.10;;
23712;SDS011;12035;49.978;8.298;2023-03-14T13:29:08;0.68;;;0.30;;
23712;SDS011;12035;49.978;8.298;2023-03-14T13:34:12;0.67;;;0.20;;
23712;SDS011;12035;49.978;8.298;2023-03-14T13:39:10;0.10;;;0.10;;
23712;SDS011;12035;49.978;8.298;2023-03-14T13:44:13;0.40;;;0.20;;
23712;SDS011;12035;49.978;8.298;2023-03-14T13:49:18;0.75;;;0.35;;
23712;SDS011;12035;49.978;8.298;2023-03-14T13:54:19;0.47;;;0.38;;
23712;SDS011;12035;49.978;8.298;2023-03-14T13:59:21;1.35;;;0.40;;
23712;SDS011;12035;49.978;8.298;2023-03-14T14:04:22;1.15;;;0.35;;
23712;SDS011;12035;49.978;8.298;2023-03-14T14:09:23;1.00;;;0.50;;
23712;SDS011;12035;49.978;8.298;2023-03-14T14:14:23;0.40;;;0.40;;
23712;SDS011;12035;49.978;8.298;2023-03-14T14:19:26;1.75;;;0.60;;
23712;SDS011;12035;49.978;8.298;2023-03-14T14:24:28;1.80;;;0.50;;
23712;SDS011;12035;49.978;8.298;2023-03-14T14:29:28;0.90;;;0.50;;
23712;SDS011;12035;49.978;8.298;2023-03-14T14:34:28;0.80;;;0.50;;
23712;SDS011;12035;49.978;8.298;2023-03-14T14:39:26;2.25;;;0.73;;
23712;SDS011;12035;49.978;8.298;2023-03-14T14:44:27;1.25;;;0.80;;
23712;SDS011;12035;49.978;8.298;2023-03-14T14:49:29;2.80;;;1.05;;
23712;SDS011;12035;49.978;8.298;2023-03-14T14:54:33;1.88;;;0.70;;
23712;SDS011;12035;49.978;8.298;2023-03-14T14:59:41;2.00;;;0.93;;
23712;SDS011;12035;49.978;8.298;2023-03-14T15:04:40;0.95;;;0.50;;
23712;SDS011;12035;49.978;8.298;2023-03-14T15:09:37;2.05;;;0.57;;
23712;SDS011;12035;49.978;8.298;2023-03-14T15:14:38;1.70;;;0.75;;
23712;SDS011;12035;49.978;8.298;2023-03-14T15:19:35;0.68;;;0.40;;
23712;SDS011;12035;49.978;8.298;2023-03-14T15:24:33;1.20;;;0.50;;
23712;SDS011;12035;49.978;8.298;2023-03-14T15:29:30;3.83;;;1.80;;
23712;SDS011;12035;49.978;8.298;2023-03-14T15:34:27;12.32;;;5.47;;
23712;SDS011;12035;49.978;8.298;2023-03-14T15:39:24;4.10;;;1.67;;
23712;SDS011;12035;49.978;8.298;2023-03-14T15:44:23;1.38;;;0.43;;
23712;SDS011;12035;49.978;8.298;2023-03-14T15:49:20;1.77;;;0.73;;
23712;SDS011;12035;49.978;8.298;2023-03-14T15:54:17;1.45;;;0.60;;
23712;SDS011;12035;49.978;8.298;2023-03-14T15:59:14;1.15;;;0.52;;
23712;SDS011;12035;49.978;8.298;2023-03-14T16:04:12;0.52;;;0.40;;
23712;SDS011;12035;49.978;8.298;2023-03-14T16:09:09;0.70;;;0.40;;
23712;SDS011;12035;49.978;8.298;2023-03-14T16:14:07;1.20;;;0.50;;
23712;SDS011;12035;49.978;8.298;2023-03-14T16:19:05;1.60;;;0.50;;
23712;SDS011;12035;49.978;8.298;2023-03-14T16:24:04;0.90;;;0.43;;
23712;SDS011;12035;49.978;8.298;2023-03-14T16:29:02;2.70;;;1.10;;
23712;SDS011;12035;49.978;8.298;2023-03-14T16:34:00;1.00;;;0.40;;
23712;SDS011;12035;49.978;8.298;2023-03-14T16:38:58;2.90;;;0.63;;
23712;SDS011;12035;49.978;8.298;2023-03-14T16:43:57;2.55;;;0.80;;
23712;SDS011;12035;49.978;8.298;2023-03-14T16:48:55;1.20;;;0.60;;
23712;SDS011;12035;49.978;8.298;2023-03-14T16:53:53;1.58;;;0.60;;
23712;SDS011;12035;49.978;8.298;2023-03-14T16:58:50;0.73;;;0.40;;
23712;SDS011;12035;49.978;8.298;2023-03-14T17:03:49;0.47;;;0.20;;
23712;SDS011;12035;49.978;8.298;2023-03-14T17:08:48;0.93;;;0.38;;
23712;SDS011;12035;49.978;8.298;2023-03-14T17:13:46;1.00;;;0.60;;
23712;SDS011;12035;49.978;8.298;2023-03-14T17:18:43;0.95;;;0.50;;
23712;SDS011;12035;49.978;8.298;2023-03-14T17:23:42;2.35;;;0.50;;
23712;SDS011;12035;49.978;8.298;2023-03-14T17:28:39;1.40;;;0.60;;
23712;SDS011;12035;49.978;8.298;2023-03-14T17:33:36;0.95;;;0.60;;
23712;SDS011;12035;49.978;8.298;2023-03-14T17:38:33;0.50;;;0.50;;
23712;SDS011;12035;49.978;8.298;2023-03-14T17:43:32;0.52;;;0.20;;
23712;SDS011;12035;49.978;8.298;2023-03-14T17:48:29;0.90;;;0.52;;
23712;SDS011;12035;49.978;8.298;2023-03-14T17:53:26;1.15;;;0.40;;
23712;SDS011;12035;49.978;8.298;2023-03-14T17:58:23;1.52;;;0.45;;
23712;SDS011;12035;49.978;8.298;2023-03-14T18:03:23;0.90;;;0.43;;
23712;SDS011;12035;49.978;8.298;2023-03-14T18:08:20;1.52;;;0.68;;
23712;SDS011;12035;49.978;8.298;2023-03-14T18:18:14;3.73;;;0.70;;
23712;SDS011;12035;49.978;8.298;2023-03-14T18:23:13;4.43;;;0.90;;
23712;SDS011;12035;49.978;8.298;2023-03-14T18:28:10;3.25;;;0.90;;
23712;SDS011;12035;49.978;8.298;2023-03-14T18:33:07;1.02;;;0.52;;
23712;SDS011;12035;49.978;8.298;2023-03-14T18:38:07;3.28;;;0.93;;
23712;SDS011;12035;49.978;8.298;2023-03-14T18:43:05;2.92;;;1.20;;
23712;SDS011;12035;49.978;8.298;2023-03-14T18:48:02;3.38;;;1.05;;
23712;SDS011;12035;49.978;8.298;2023-03-14T18:53:00;1.92;;;0.90;;
23712;SDS011;12035;49.978;8.298;2023-03-14T18:57:58;3.30;;;1.00;;
23712;SDS011;12035;49.978;8.298;2023-03-14T19:02:56;2.17;;;1.10;;
23712;SDS011;12035;49.978;8.298;2023-03-14T19:07:53;5.63;;;1.63;;
23712;SDS011;12035;49.978;8.298;2023-03-14T19:12:52;6.93;;;1.33;;
23712;SDS011;12035;49.978;8.298;2023-03-14T19:17:49;6.47;;;1.85;;
23712;SDS011;12035;49.978;8.298;2023-03-14T19:22:48;5.55;;;2.00;;
23712;SDS011;12035;49.978;8.298;2023-03-14T19:27:45;6.32;;;2.10;;
23712;SDS011;12035;49.978;8.298;2023-03-14T19:32:42;5.30;;;1.50;;
23712;SDS011;12035;49.978;8.298;2023-03-14T19:37:40;5.38;;;1.60;;
23712;SDS011;12035;49.978;8.298;2023-03-14T19:42:40;3.58;;;1.02;;
23712;SDS011;12035;49.978;8.298;2023-03-14T19:47:38;4.47;;;1.25;;
23712;SDS011;12035;49.978;8.298;2023-03-14T19:52:35;3.70;;;1.20;;
23712;SDS011;12035;49.978;8.298;2023-03-14T19:57:37;6.22;;;1.30;;
23712;SDS011;12035;49.978;8.298;2023-03-14T20:02:36;2.50;;;0.93;;
23712;SDS011;12035;49.978;8.298;2023-03-14T20:07:33;3.88;;;1.10;;
23712;SDS011;12035;49.978;8.298;2023-03-14T20:12:30;3.50;;;1.20;;
23712;SDS011;12035;49.978;8.298;2023-03-14T20:17:29;7.25;;;1.30;;
23712;SDS011;12035;49.978;8.298;2023-03-14T20:22:27;2.47;;;0.77;;
23712;SDS011;12035;49.978;8.298;2023-03-14T20:27:30;5.13;;;1.02;;
23712;SDS011;12035;49.978;8.298;2023-03-14T20:32:27;5.22;;;1.27;;
23712;SDS011;12035;49.978;8.298;2023-03-14T20:37:24;5.07;;;0.82;;
23712;SDS011;12035;49.978;8.298;2023-03-14T20:42:23;4.22;;;1.30;;
23712;SDS011;12035;49.978;8.298;2023-03-14T20:47:21;5.57;;;1.27;;
23712;SDS011;12035;49.978;8.298;2023-03-14T20:52:18;3.67;;;1.10;;
23712;SDS011;12035;49.978;8.298;2023-03-14T20:57:15;6.03;;;1.20;;
23712;SDS011;12035;49.978;8.298;2023-03-14T21:02:13;3.50;;;0.82;;
23712;SDS011;12035;49.978;8.298;2023-03-14T21:07:10;5.38;;;1.20;;
23712;SDS011;12035;49.978;8.298;2023-03-14T21:12:07;4.68;;;0.98;;
23712;SDS011;12035;49.978;8.298;2023-03-14T21:17:05;2.97;;;0.98;;
23712;SDS011;12035;49.978;8.298;2023-03-14T21:22:03;3.55;;;1.00;;
23712;SDS011;12035;49.978;8.298;2023-03-14T21:27:01;3.60;;;1.00;;
23712;SDS011;12035;49.978;8.298;2023-03-14T21:31:58;4.97;;;1.10;;
23712;SDS011;12035;49.978;8.298;2023-03-14T21:36:55;6.10;;;1.42;;
23712;SDS011;12035;49.978;8.298;2023-03-14T21:41:54;5.20;;;1.20;;
23712;SDS011;12035;49.978;8.298;2023-03-14T21:46:51;5.25;;;1.05;;
23712;SDS011;12035;49.978;8.298;2023-03-14T21:51:49;5.32;;;1.38;;
23712;SDS011;12035;49.978;8.298;2023-03-14T21:56:46;3.83;;;1.80;;
23712;SDS011;12035;49.978;8.298;2023-03-14T22:01:44;12.90;;;4.40;;
23712;SDS011;12035;49.978;8.298;2023-03-14T22:06:41;10.27;;;2.83;;
23712;SDS011;12035;49.978;8.298;2023-03-14T22:11:39;9.80;;;2.28;;
23712;SDS011;12035;49.978;8.298;2023-03-14T22:16:37;7.65;;;2.45;;
23712;SDS011;12035;49.978;8.298;2023-03-14T22:21:35;6.03;;;1.48;;
23712;SDS011;12035;49.978;8.298;2023-03-14T22:26:32;4.47;;;1.13;;
23712;SDS011;12035;49.978;8.298;2023-03-14T22:31:29;3.67;;;1.00;;
23712;SDS011;12035;49.978;8.298;2023-03-14T22:36:27;5.70;;;1.17;;
23712;SDS011;12035;49.978;8.298;2023-03-14T22:41:26;4.50;;;1.13;;
23712;SDS011;12035;49.978;8.298;2023-03-14T22:46:24;3.50;;;1.00;;
23712;SDS011;12035;49.978;8.298;2023-03-14T22:51:21;8.45;;;1.48;;
23712;SDS011;12035;49.978;8.298;2023-03-14T22:56:18;4.30;;;1.20;;
23712;SDS011;12035;49.978;8.298;2023-03-14T23:01:16;2.80;;;1.00;;
23712;SDS011;12035;49.978;8.298;2023-03-14T23:06:13;4.72;;;1.10;;
23712;SDS011;12035;49.978;8.298;2023-03-14T23:11:11;5.03;;;1.23;;
23712;SDS011;12035;49.978;8.298;2023-03-14T23:16:09;7.50;;;1.00;;
23712;SDS011;12035;49.978;8.298;2023-03-14T23:21:09;4.85;;;1.30;;
23712;SDS011;12035;49.978;8.298;2023-03-14T23:26:10;7.47;;;1.92;;
23712;SDS011;12035;49.978;8.298;2023-03-14T23:31:08;5.03;;;1.10;;
23712;SDS011;12035;49.978;8.298;2023-03-14T23:36:10;4.65;;;1.05;;
23712;SDS011;12035;49.978;8.298;2023-03-14T23:41:10;6.00;;;1.17;;
23712;SDS011;12035;49.978;8.298;2023-03-14T23:46:08;7.20;;;1.55;;
23712;SDS011;12035;49.978;8.298;2023-03-14T23:51:06;5.47;;;1.10;;
23712;SDS011;12035;49.978;8.298;2023-03-14T23:56:08;4.93;;;1.17;;
